Aérodrome :
LOGIN :

S'inscrire | Disclaimer

   EN    FR    IT 

 










Légende :    VFR   VFR Marginal   IFR   IFR Intensif   IFR Très Intensif
Visi : 
Plafond : 
>= 8 km
>= 3000ft
5 à 8 km
1000 à 3000 ft
1500m à 5 km
500 à 1000 ft
800 à 1500m
200 à 500 ft
< 800m
< 200 ft
Symboles :   Orages  Brouillard  Fortes neiges  Fortes précipitations  Vent > 20 kt
SIGMETs :   Divers  Orages  Givrage  Turbulence  Onde Orograph.  Cendres Volcan.






- Altitude de l'aérodrome : 23 ft
- Code IATA : XFW


EDHI - Hamburg Finkenwerder

DERNIER METAR :
  • 291150Z 20012KT CAVOK 12/02 Q1011

METARs EXPIRÉS :
  • 291120Z 20013KT CAVOK 11/01 Q1012
  • 291050Z 19007KT 140V220 CAVOK 11/01 Q1012
  • 291020Z 20009KT 170V230 CAVOK 09/01 Q1012
  • 290950Z 19005KT 120V230 CAVOK 09/01 Q1012
  • 290920Z 16006KT 130V210 CAVOK 09/00 Q1013
  • 290850Z 15005KT CAVOK 07/01 Q1013
  • 290820Z 15005KT 110V200 CAVOK 06/01 Q1013
  • 290750Z 15006KT CAVOK 06/01 Q1013
  • 290720Z 15006KT CAVOK 05/01 Q1013
  • 290650Z 14006KT CAVOK 04/01 Q1014

TAF TAF EDHI
Valide du 29 à 12h jusqu'au 29 à 21h UTC


291100Z 2912/2921 17008KT CAVOK



MET'MAP, la Météo Aéronautique d'un coup d'oeil ! - Copyright ORBIFLY Décembre 2007 - Disclaimer

ORBIFLY MET'MAP TEAM :

Programmation & Développement : Alexandra Zaïnal
Sur une idée originale de : Baudouin d'Aumeries
Soutien technique & logistique : Manuel Goepfert
Assistance : Marc-Olivier Méhu




SOURCES & CREDITS :

   NOAA